Cameron Village, North Carolina
Current Conditions -  °F | °C
As of 4:51 AM on Sunday 26 Oct 2014 (Local Time) from KRDU Reporting Station
Clear Clear  
Wind Chill: 47°   Ceiling: Unl
Heat Index: 49°   Visibility: 10mi
Dew Point: 43°   Wind: 5mph
Humidity: 80%   Direction: 230°SW
Pressure: 29.82"   Gusts: NA
Location:  35.7907°N, 78.6542°W
Report Text: KRDU 260851Z 23004KT 10SM CLR 09/06 A2982 RMK AO2 SLP096 T00940061 58007 $
Loading
Personal Weather Stations






























Interactive Weather Map New forecast layout! Learn more

10-Day Weather Forecast

Advertisements
Track Severe Weather on mobile